sensor_id;sensor_type;location;lat;lon;timestamp;P1;durP1;ratioP1;P2;durP2;ratioP2
47413;SDS011;33163;0.000;0.000;2023-06-24T00:00:21;5.72;;;2.35;;
47413;SDS011;33163;0.000;0.000;2023-06-24T00:02:47;3.05;;;2.17;;
47413;SDS011;33163;0.000;0.000;2023-06-24T00:05:16;2.55;;;1.98;;
47413;SDS011;33163;0.000;0.000;2023-06-24T00:07:43;6.90;;;2.55;;
47413;SDS011;33163;0.000;0.000;2023-06-24T00:10:10;3.28;;;2.03;;
47413;SDS011;33163;0.000;0.000;2023-06-24T00:12:38;4.65;;;1.73;;
47413;SDS011;33163;0.000;0.000;2023-06-24T00:15:07;2.60;;;1.80;;
47413;SDS011;33163;0.000;0.000;2023-06-24T00:17:36;3.97;;;2.08;;
47413;SDS011;33163;0.000;0.000;2023-06-24T00:20:03;2.20;;;1.73;;
47413;SDS011;33163;0.000;0.000;2023-06-24T00:22:33;3.35;;;2.08;;
47413;SDS011;33163;0.000;0.000;2023-06-24T00:25:00;3.55;;;2.08;;
47413;SDS011;33163;0.000;0.000;2023-06-24T00:27:27;4.10;;;2.20;;
47413;SDS011;33163;0.000;0.000;2023-06-24T00:29:54;5.88;;;2.10;;
47413;SDS011;33163;0.000;0.000;2023-06-24T00:32:20;3.05;;;2.00;;
47413;SDS011;33163;0.000;0.000;2023-06-24T00:34:48;3.63;;;2.05;;
47413;SDS011;33163;0.000;0.000;2023-06-24T00:37:15;3.35;;;2.25;;
47413;SDS011;33163;0.000;0.000;2023-06-24T00:39:42;4.43;;;2.10;;
47413;SDS011;33163;0.000;0.000;2023-06-24T00:42:09;6.15;;;1.70;;
47413;SDS011;33163;0.000;0.000;2023-06-24T00:44:36;2.78;;;1.90;;
47413;SDS011;33163;0.000;0.000;2023-06-24T00:47:04;3.80;;;1.75;;
47413;SDS011;33163;0.000;0.000;2023-06-24T00:49:33;3.05;;;1.90;;
47413;SDS011;33163;0.000;0.000;2023-06-24T00:52:01;3.30;;;1.77;;
47413;SDS011;33163;0.000;0.000;2023-06-24T00:54:28;2.95;;;2.08;;
47413;SDS011;33163;0.000;0.000;2023-06-24T00:56:57;4.05;;;2.10;;
47413;SDS011;33163;0.000;0.000;2023-06-24T00:59:25;3.90;;;2.15;;
47413;SDS011;33163;0.000;0.000;2023-06-24T01:01:54;3.60;;;2.13;;
47413;SDS011;33163;0.000;0.000;2023-06-24T01:04:21;3.42;;;2.17;;
47413;SDS011;33163;0.000;0.000;2023-06-24T01:06:50;3.72;;;2.00;;
47413;SDS011;33163;0.000;0.000;2023-06-24T01:09:18;4.10;;;1.92;;
47413;SDS011;33163;0.000;0.000;2023-06-24T01:11:44;2.70;;;1.83;;
47413;SDS011;33163;0.000;0.000;2023-06-24T01:14:11;3.53;;;1.67;;
47413;SDS011;33163;0.000;0.000;2023-06-24T01:16:40;2.72;;;1.90;;
47413;SDS011;33163;0.000;0.000;2023-06-24T01:19:21;2.45;;;1.70;;
47413;SDS011;33163;0.000;0.000;2023-06-24T01:22:13;3.97;;;1.63;;
47413;SDS011;33163;0.000;0.000;2023-06-24T01:24:58;2.15;;;1.60;;
47413;SDS011;33163;0.000;0.000;2023-06-24T01:27:45;3.22;;;2.10;;
47413;SDS011;33163;0.000;0.000;2023-06-24T01:30:42;2.53;;;2.00;;
47413;SDS011;33163;0.000;0.000;2023-06-24T01:33:31;1.63;;;1.50;;
47413;SDS011;33163;0.000;0.000;2023-06-24T01:36:03;3.83;;;1.83;;
47413;SDS011;33163;0.000;0.000;2023-06-24T01:38:35;3.55;;;1.85;;
47413;SDS011;33163;0.000;0.000;2023-06-24T01:41:06;2.30;;;2.00;;
47413;SDS011;33163;0.000;0.000;2023-06-24T01:43:35;2.90;;;1.67;;
47413;SDS011;33163;0.000;0.000;2023-06-24T01:46:03;2.88;;;1.90;;
47413;SDS011;33163;0.000;0.000;2023-06-24T01:48:34;4.38;;;1.58;;
47413;SDS011;33163;0.000;0.000;2023-06-24T01:51:03;4.63;;;2.00;;
47413;SDS011;33163;0.000;0.000;2023-06-24T01:53:34;3.45;;;2.20;;
47413;SDS011;33163;0.000;0.000;2023-06-24T01:56:04;4.88;;;2.00;;
47413;SDS011;33163;0.000;0.000;2023-06-24T01:58:33;2.45;;;1.95;;
47413;SDS011;33163;0.000;0.000;2023-06-24T02:01:02;2.20;;;1.55;;
47413;SDS011;33163;0.000;0.000;2023-06-24T02:03:29;2.55;;;1.90;;
47413;SDS011;33163;0.000;0.000;2023-06-24T02:06:00;2.92;;;1.77;;
47413;SDS011;33163;0.000;0.000;2023-06-24T02:08:29;4.97;;;2.00;;
47413;SDS011;33163;0.000;0.000;2023-06-24T02:10:58;2.97;;;1.70;;
47413;SDS011;33163;0.000;0.000;2023-06-24T02:13:26;2.33;;;1.75;;
47413;SDS011;33163;0.000;0.000;2023-06-24T02:15:53;2.78;;;1.90;;
47413;SDS011;33163;0.000;0.000;2023-06-24T02:18:21;3.47;;;2.08;;
47413;SDS011;33163;0.000;0.000;2023-06-24T02:20:48;2.53;;;1.70;;
47413;SDS011;33163;0.000;0.000;2023-06-24T02:23:18;3.83;;;2.00;;
47413;SDS011;33163;0.000;0.000;2023-06-24T02:25:46;3.30;;;1.80;;
47413;SDS011;33163;0.000;0.000;2023-06-24T02:28:14;2.72;;;1.73;;
47413;SDS011;33163;0.000;0.000;2023-06-24T02:30:41;3.53;;;2.40;;
47413;SDS011;33163;0.000;0.000;2023-06-24T02:33:10;3.30;;;1.83;;
47413;SDS011;33163;0.000;0.000;2023-06-24T02:35:36;2.70;;;2.03;;
47413;SDS011;33163;0.000;0.000;2023-06-24T02:38:06;2.10;;;1.90;;
47413;SDS011;33163;0.000;0.000;2023-06-24T02:40:34;2.42;;;1.92;;
47413;SDS011;33163;0.000;0.000;2023-06-24T02:43:01;5.68;;;2.22;;
47413;SDS011;33163;0.000;0.000;2023-06-24T02:45:28;4.15;;;2.05;;
47413;SDS011;33163;0.000;0.000;2023-06-24T02:47:55;2.35;;;1.95;;
47413;SDS011;33163;0.000;0.000;2023-06-24T02:50:23;3.17;;;2.13;;
47413;SDS011;33163;0.000;0.000;2023-06-24T02:52:51;2.33;;;2.10;;
47413;SDS011;33163;0.000;0.000;2023-06-24T02:55:18;2.72;;;1.90;;
47413;SDS011;33163;0.000;0.000;2023-06-24T02:57:46;2.70;;;2.20;;
47413;SDS011;33163;0.000;0.000;2023-06-24T03:00:14;3.35;;;1.88;;
47413;SDS011;33163;0.000;0.000;2023-06-24T03:02:42;3.03;;;1.70;;
47413;SDS011;33163;0.000;0.000;2023-06-24T03:05:10;3.55;;;1.80;;
47413;SDS011;33163;0.000;0.000;2023-06-24T03:07:37;4.15;;;2.45;;
47413;SDS011;33163;0.000;0.000;2023-06-24T03:10:05;3.30;;;2.20;;
47413;SDS011;33163;0.000;0.000;2023-06-24T03:12:33;2.53;;;1.90;;
47413;SDS011;33163;0.000;0.000;2023-06-24T03:15:01;3.63;;;2.05;;
47413;SDS011;33163;0.000;0.000;2023-06-24T03:17:28;3.50;;;1.83;;
47413;SDS011;33163;0.000;0.000;2023-06-24T03:19:56;2.53;;;1.65;;
47413;SDS011;33163;0.000;0.000;2023-06-24T03:22:23;3.88;;;2.28;;
47413;SDS011;33163;0.000;0.000;2023-06-24T03:24:50;3.47;;;2.10;;
47413;SDS011;33163;0.000;0.000;2023-06-24T03:27:17;3.17;;;1.67;;
47413;SDS011;33163;0.000;0.000;2023-06-24T03:29:44;4.40;;;1.85;;
47413;SDS011;33163;0.000;0.000;2023-06-24T03:32:12;4.25;;;2.10;;
47413;SDS011;33163;0.000;0.000;2023-06-24T03:34:39;2.80;;;2.05;;
47413;SDS011;33163;0.000;0.000;2023-06-24T03:37:06;3.05;;;1.90;;
47413;SDS011;33163;0.000;0.000;2023-06-24T03:39:33;4.70;;;2.40;;
47413;SDS011;33163;0.000;0.000;2023-06-24T03:41:59;4.70;;;2.05;;
47413;SDS011;33163;0.000;0.000;2023-06-24T03:44:26;3.35;;;2.20;;
47413;SDS011;33163;0.000;0.000;2023-06-24T03:46:53;4.35;;;1.85;;
47413;SDS011;33163;0.000;0.000;2023-06-24T03:49:21;2.58;;;1.70;;
47413;SDS011;33163;0.000;0.000;2023-06-24T03:51:48;2.53;;;1.88;;
47413;SDS011;33163;0.000;0.000;2023-06-24T03:54:14;3.15;;;2.17;;
47413;SDS011;33163;0.000;0.000;2023-06-24T03:56:41;3.50;;;2.05;;
47413;SDS011;33163;0.000;0.000;2023-06-24T03:59:08;2.42;;;2.05;;
47413;SDS011;33163;0.000;0.000;2023-06-24T04:01:35;2.08;;;1.80;;
47413;SDS011;33163;0.000;0.000;2023-06-24T04:04:01;4.82;;;2.90;;
47413;SDS011;33163;0.000;0.000;2023-06-24T04:06:29;2.72;;;2.08;;
47413;SDS011;33163;0.000;0.000;2023-06-24T04:08:56;4.82;;;2.17;;
47413;SDS011;33163;0.000;0.000;2023-06-24T04:11:23;3.03;;;1.80;;
47413;SDS011;33163;0.000;0.000;2023-06-24T04:13:50;3.55;;;1.83;;
47413;SDS011;33163;0.000;0.000;2023-06-24T04:16:17;4.00;;;2.50;;
47413;SDS011;33163;0.000;0.000;2023-06-24T04:18:44;2.17;;;1.70;;
47413;SDS011;33163;0.000;0.000;2023-06-24T04:21:10;4.28;;;2.45;;
47413;SDS011;33163;0.000;0.000;2023-06-24T04:23:38;2.55;;;1.90;;
47413;SDS011;33163;0.000;0.000;2023-06-24T04:26:05;2.63;;;1.98;;
47413;SDS011;33163;0.000;0.000;2023-06-24T04:28:32;3.63;;;1.90;;
47413;SDS011;33163;0.000;0.000;2023-06-24T04:30:59;1.83;;;1.67;;
47413;SDS011;33163;0.000;0.000;2023-06-24T04:33:25;2.83;;;1.85;;
47413;SDS011;33163;0.000;0.000;2023-06-24T04:35:52;3.13;;;2.03;;
47413;SDS011;33163;0.000;0.000;2023-06-24T04:38:19;3.47;;;1.95;;
47413;SDS011;33163;0.000;0.000;2023-06-24T04:40:47;3.03;;;2.15;;
47413;SDS011;33163;0.000;0.000;2023-06-24T04:43:14;3.95;;;2.08;;
47413;SDS011;33163;0.000;0.000;2023-06-24T04:45:40;2.65;;;1.83;;
47413;SDS011;33163;0.000;0.000;2023-06-24T04:48:07;2.80;;;2.10;;
47413;SDS011;33163;0.000;0.000;2023-06-24T04:50:34;2.67;;;1.90;;
47413;SDS011;33163;0.000;0.000;2023-06-24T04:53:01;3.00;;;1.90;;
47413;SDS011;33163;0.000;0.000;2023-06-24T04:55:27;2.90;;;2.05;;
47413;SDS011;33163;0.000;0.000;2023-06-24T04:57:56;5.95;;;1.92;;
47413;SDS011;33163;0.000;0.000;2023-06-24T05:00:23;3.03;;;2.13;;
47413;SDS011;33163;0.000;0.000;2023-06-24T05:02:50;4.47;;;2.63;;
47413;SDS011;33163;0.000;0.000;2023-06-24T05:05:17;4.22;;;2.28;;
47413;SDS011;33163;0.000;0.000;2023-06-24T05:07:45;2.83;;;1.80;;
47413;SDS011;33163;0.000;0.000;2023-06-24T05:10:12;3.58;;;2.13;;
47413;SDS011;33163;0.000;0.000;2023-06-24T05:12:38;2.60;;;1.83;;
47413;SDS011;33163;0.000;0.000;2023-06-24T05:15:07;4.25;;;2.42;;
47413;SDS011;33163;0.000;0.000;2023-06-24T05:17:34;3.20;;;1.98;;
47413;SDS011;33163;0.000;0.000;2023-06-24T05:20:01;3.03;;;1.95;;
47413;SDS011;33163;0.000;0.000;2023-06-24T05:22:29;2.60;;;2.05;;
47413;SDS011;33163;0.000;0.000;2023-06-24T05:24:55;5.43;;;2.10;;
47413;SDS011;33163;0.000;0.000;2023-06-24T05:27:22;3.10;;;2.05;;
47413;SDS011;33163;0.000;0.000;2023-06-24T05:29:49;4.00;;;2.60;;
47413;SDS011;33163;0.000;0.000;2023-06-24T05:32:17;5.40;;;2.05;;
47413;SDS011;33163;0.000;0.000;2023-06-24T05:34:45;3.33;;;2.45;;
47413;SDS011;33163;0.000;0.000;2023-06-24T05:37:12;2.95;;;1.83;;
47413;SDS011;33163;0.000;0.000;2023-06-24T05:39:38;2.63;;;2.10;;
47413;SDS011;33163;0.000;0.000;2023-06-24T05:42:05;4.20;;;2.40;;
47413;SDS011;33163;0.000;0.000;2023-06-24T05:44:32;3.50;;;2.05;;
47413;SDS011;33163;0.000;0.000;2023-06-24T05:46:59;3.25;;;2.10;;
47413;SDS011;33163;0.000;0.000;2023-06-24T05:49:27;3.00;;;2.20;;
47413;SDS011;33163;0.000;0.000;2023-06-24T05:51:54;3.80;;;2.00;;
47413;SDS011;33163;0.000;0.000;2023-06-24T05:54:22;2.88;;;2.05;;
47413;SDS011;33163;0.000;0.000;2023-06-24T05:56:48;3.05;;;1.88;;
47413;SDS011;33163;0.000;0.000;2023-06-24T05:59:15;4.03;;;2.13;;
47413;SDS011;33163;0.000;0.000;2023-06-24T06:01:42;3.20;;;2.30;;
47413;SDS011;33163;0.000;0.000;2023-06-24T06:04:09;2.90;;;2.10;;
47413;SDS011;33163;0.000;0.000;2023-06-24T06:06:37;4.22;;;2.25;;
47413;SDS011;33163;0.000;0.000;2023-06-24T06:09:04;4.03;;;2.50;;
47413;SDS011;33163;0.000;0.000;2023-06-24T06:11:31;3.83;;;1.90;;
47413;SDS011;33163;0.000;0.000;2023-06-24T06:13:58;2.28;;;2.08;;
47413;SDS011;33163;0.000;0.000;2023-06-24T06:16:24;2.55;;;1.88;;
47413;SDS011;33163;0.000;0.000;2023-06-24T06:18:51;8.98;;;2.92;;
47413;SDS011;33163;0.000;0.000;2023-06-24T06:21:18;4.93;;;4.00;;
47413;SDS011;33163;0.000;0.000;2023-06-24T06:23:46;10.93;;;5.15;;
47413;SDS011;33163;0.000;0.000;2023-06-24T06:26:13;7.82;;;4.85;;
47413;SDS011;33163;0.000;0.000;2023-06-24T06:28:39;12.48;;;5.60;;
47413;SDS011;33163;0.000;0.000;2023-06-24T06:31:06;9.07;;;5.22;;
47413;SDS011;33163;0.000;0.000;2023-06-24T06:33:33;13.10;;;5.65;;
47413;SDS011;33163;0.000;0.000;2023-06-24T06:36:00;12.32;;;5.35;;
47413;SDS011;33163;0.000;0.000;2023-06-24T06:38:26;17.10;;;6.00;;
47413;SDS011;33163;0.000;0.000;2023-06-24T06:40:54;12.05;;;6.30;;
47413;SDS011;33163;0.000;0.000;2023-06-24T06:43:21;10.23;;;5.78;;
47413;SDS011;33163;0.000;0.000;2023-06-24T06:45:48;9.38;;;5.88;;
47413;SDS011;33163;0.000;0.000;2023-06-24T06:48:15;14.52;;;6.70;;
47413;SDS011;33163;0.000;0.000;2023-06-24T06:50:41;11.68;;;6.40;;
47413;SDS011;33163;0.000;0.000;2023-06-24T06:53:08;15.43;;;6.55;;
47413;SDS011;33163;0.000;0.000;2023-06-24T06:55:36;11.60;;;5.78;;
47413;SDS011;33163;0.000;0.000;2023-06-24T06:58:05;11.35;;;6.25;;
47413;SDS011;33163;0.000;0.000;2023-06-24T07:00:32;13.82;;;6.20;;
47413;SDS011;33163;0.000;0.000;2023-06-24T07:02:59;10.63;;;5.63;;
47413;SDS011;33163;0.000;0.000;2023-06-24T07:05:25;10.57;;;6.13;;
47413;SDS011;33163;0.000;0.000;2023-06-24T07:07:52;12.45;;;5.75;;
47413;SDS011;33163;0.000;0.000;2023-06-24T07:10:19;13.75;;;6.63;;
47413;SDS011;33163;0.000;0.000;2023-06-24T07:12:46;20.38;;;6.40;;
47413;SDS011;33163;0.000;0.000;2023-06-24T07:15:14;20.40;;;6.13;;
47413;SDS011;33163;0.000;0.000;2023-06-24T07:17:44;27.95;;;6.53;;
47413;SDS011;33163;0.000;0.000;2023-06-24T07:20:11;24.30;;;7.32;;
47413;SDS011;33163;0.000;0.000;2023-06-24T07:22:38;30.98;;;6.55;;
47413;SDS011;33163;0.000;0.000;2023-06-24T07:25:04;24.75;;;6.47;;
47413;SDS011;33163;0.000;0.000;2023-06-24T07:27:31;60.85;;;8.63;;
47413;SDS011;33163;0.000;0.000;2023-06-24T07:29:58;35.85;;;7.32;;
47413;SDS011;33163;0.000;0.000;2023-06-24T07:32:26;49.67;;;9.15;;
47413;SDS011;33163;0.000;0.000;2023-06-24T07:34:53;22.85;;;6.50;;
47413;SDS011;33163;0.000;0.000;2023-06-24T07:37:19;37.13;;;6.97;;
47413;SDS011;33163;0.000;0.000;2023-06-24T07:39:46;27.98;;;6.05;;
47413;SDS011;33163;0.000;0.000;2023-06-24T07:42:13;11.63;;;6.10;;
47413;SDS011;33163;0.000;0.000;2023-06-24T07:44:43;16.45;;;5.97;;
47413;SDS011;33163;0.000;0.000;2023-06-24T07:47:10;10.57;;;5.28;;
47413;SDS011;33163;0.000;0.000;2023-06-24T07:49:38;10.95;;;6.47;;
47413;SDS011;33163;0.000;0.000;2023-06-24T07:52:05;12.85;;;5.75;;
47413;SDS011;33163;0.000;0.000;2023-06-24T07:54:33;12.52;;;5.35;;
47413;SDS011;33163;0.000;0.000;2023-06-24T07:57:00;12.82;;;6.75;;
47413;SDS011;33163;0.000;0.000;2023-06-24T07:59:27;12.38;;;5.70;;
47413;SDS011;33163;0.000;0.000;2023-06-24T08:01:54;12.27;;;5.97;;
47413;SDS011;33163;0.000;0.000;2023-06-24T08:04:21;9.55;;;5.95;;
47413;SDS011;33163;0.000;0.000;2023-06-24T08:06:49;12.75;;;6.35;;
47413;SDS011;33163;0.000;0.000;2023-06-24T08:09:16;10.48;;;5.90;;
47413;SDS011;33163;0.000;0.000;2023-06-24T08:11:42;8.30;;;6.53;;
47413;SDS011;33163;0.000;0.000;2023-06-24T08:14:09;15.65;;;6.78;;
47413;SDS011;33163;0.000;0.000;2023-06-24T08:16:36;10.13;;;5.43;;
47413;SDS011;33163;0.000;0.000;2023-06-24T08:19:03;14.18;;;6.03;;
47413;SDS011;33163;0.000;0.000;2023-06-24T08:21:30;9.70;;;4.93;;
47413;SDS011;33163;0.000;0.000;2023-06-24T08:23:58;7.47;;;4.68;;
47413;SDS011;33163;0.000;0.000;2023-06-24T08:26:25;13.55;;;4.82;;
47413;SDS011;33163;0.000;0.000;2023-06-24T08:28:52;11.68;;;5.40;;
47413;SDS011;33163;0.000;0.000;2023-06-24T08:31:19;10.15;;;4.93;;
47413;SDS011;33163;0.000;0.000;2023-06-24T08:33:47;11.70;;;6.07;;
47413;SDS011;33163;0.000;0.000;2023-06-24T08:36:18;15.30;;;5.78;;
47413;SDS011;33163;0.000;0.000;2023-06-24T08:38:45;10.23;;;5.68;;
47413;SDS011;33163;0.000;0.000;2023-06-24T08:41:14;10.68;;;5.20;;
47413;SDS011;33163;0.000;0.000;2023-06-24T08:43:40;13.60;;;6.10;;
47413;SDS011;33163;0.000;0.000;2023-06-24T08:46:08;13.45;;;6.05;;
47413;SDS011;33163;0.000;0.000;2023-06-24T08:48:35;14.23;;;6.20;;
47413;SDS011;33163;0.000;0.000;2023-06-24T08:51:05;9.40;;;5.13;;
47413;SDS011;33163;0.000;0.000;2023-06-24T08:53:35;9.60;;;5.10;;
47413;SDS011;33163;0.000;0.000;2023-06-24T08:56:03;10.40;;;5.07;;
47413;SDS011;33163;0.000;0.000;2023-06-24T08:58:32;10.88;;;5.95;;
47413;SDS011;33163;0.000;0.000;2023-06-24T09:00:59;14.27;;;7.97;;
47413;SDS011;33163;0.000;0.000;2023-06-24T09:03:27;15.98;;;7.25;;
47413;SDS011;33163;0.000;0.000;2023-06-24T09:05:54;10.65;;;6.22;;
47413;SDS011;33163;0.000;0.000;2023-06-24T09:08:21;11.07;;;5.80;;
47413;SDS011;33163;0.000;0.000;2023-06-24T09:10:52;12.07;;;5.88;;
47413;SDS011;33163;0.000;0.000;2023-06-24T09:13:19;14.35;;;5.78;;
47413;SDS011;33163;0.000;0.000;2023-06-24T09:15:49;10.52;;;4.80;;
47413;SDS011;33163;0.000;0.000;2023-06-24T09:18:16;11.73;;;5.40;;
47413;SDS011;33163;0.000;0.000;2023-06-24T09:20:43;14.82;;;5.03;;
47413;SDS011;33163;0.000;0.000;2023-06-24T09:23:10;10.20;;;4.57;;
47413;SDS011;33163;0.000;0.000;2023-06-24T09:25:37;10.35;;;4.35;;
47413;SDS011;33163;0.000;0.000;2023-06-24T09:28:04;14.93;;;4.15;;
47413;SDS011;33163;0.000;0.000;2023-06-24T09:30:31;7.25;;;4.15;;
47413;SDS011;33163;0.000;0.000;2023-06-24T09:32:59;15.93;;;4.97;;
47413;SDS011;33163;0.000;0.000;2023-06-24T09:35:26;18.15;;;4.38;;
47413;SDS011;33163;0.000;0.000;2023-06-24T09:37:53;11.82;;;4.22;;
47413;SDS011;33163;0.000;0.000;2023-06-24T09:40:21;10.30;;;5.07;;
47413;SDS011;33163;0.000;0.000;2023-06-24T09:42:49;10.18;;;4.68;;
47413;SDS011;33163;0.000;0.000;2023-06-24T09:45:21;9.07;;;4.30;;
47413;SDS011;33163;0.000;0.000;2023-06-24T09:47:49;9.77;;;4.43;;
47413;SDS011;33163;0.000;0.000;2023-06-24T09:50:17;10.18;;;3.88;;
47413;SDS011;33163;0.000;0.000;2023-06-24T09:52:44;8.07;;;3.58;;
47413;SDS011;33163;0.000;0.000;2023-06-24T09:55:12;10.15;;;4.25;;
47413;SDS011;33163;0.000;0.000;2023-06-24T09:57:39;10.73;;;4.40;;
47413;SDS011;33163;0.000;0.000;2023-06-24T10:00:08;10.02;;;3.60;;
47413;SDS011;33163;0.000;0.000;2023-06-24T10:02:36;6.47;;;4.03;;
47413;SDS011;33163;0.000;0.000;2023-06-24T10:05:04;9.95;;;4.20;;
47413;SDS011;33163;0.000;0.000;2023-06-24T10:07:33;14.23;;;4.10;;
47413;SDS011;33163;0.000;0.000;2023-06-24T10:10:02;12.45;;;3.72;;
47413;SDS011;33163;0.000;0.000;2023-06-24T10:12:29;7.03;;;3.85;;
47413;SDS011;33163;0.000;0.000;2023-06-24T10:14:57;8.98;;;3.97;;
47413;SDS011;33163;0.000;0.000;2023-06-24T10:17:24;8.13;;;4.05;;
47413;SDS011;33163;0.000;0.000;2023-06-24T10:19:51;14.93;;;3.80;;
47413;SDS011;33163;0.000;0.000;2023-06-24T10:22:20;4.75;;;3.50;;
47413;SDS011;33163;0.000;0.000;2023-06-24T10:24:50;13.05;;;3.97;;
47413;SDS011;33163;0.000;0.000;2023-06-24T10:27:18;6.47;;;3.63;;
47413;SDS011;33163;0.000;0.000;2023-06-24T10:29:48;7.90;;;3.35;;
47413;SDS011;33163;0.000;0.000;2023-06-24T10:32:15;8.98;;;3.53;;
47413;SDS011;33163;0.000;0.000;2023-06-24T10:34:43;8.10;;;3.25;;
47413;SDS011;33163;0.000;0.000;2023-06-24T10:37:12;11.00;;;3.92;;
47413;SDS011;33163;0.000;0.000;2023-06-24T10:39:47;6.78;;;3.75;;
47413;SDS011;33163;0.000;0.000;2023-06-24T10:42:37;9.52;;;3.70;;
47413;SDS011;33163;0.000;0.000;2023-06-24T10:45:13;9.57;;;3.90;;
47413;SDS011;33163;0.000;0.000;2023-06-24T10:47:42;5.03;;;3.58;;
47413;SDS011;33163;0.000;0.000;2023-06-24T10:50:11;5.47;;;3.22;;
47413;SDS011;33163;0.000;0.000;2023-06-24T10:52:40;9.80;;;3.78;;
47413;SDS011;33163;0.000;0.000;2023-06-24T10:55:08;9.70;;;3.92;;
47413;SDS011;33163;0.000;0.000;2023-06-24T10:57:37;8.45;;;3.72;;
47413;SDS011;33163;0.000;0.000;2023-06-24T11:00:04;22.20;;;7.38;;
47413;SDS011;33163;0.000;0.000;2023-06-24T11:02:31;32.90;;;15.88;;
47413;SDS011;33163;0.000;0.000;2023-06-24T11:04:58;152.40;;;62.65;;
47413;SDS011;33163;0.000;0.000;2023-06-24T11:07:27;201.65;;;83.38;;
47413;SDS011;33163;0.000;0.000;2023-06-24T11:09:55;167.90;;;71.10;;
47413;SDS011;33163;0.000;0.000;2023-06-24T11:12:23;184.13;;;79.03;;
47413;SDS011;33163;0.000;0.000;2023-06-24T11:14:52;162.32;;;68.07;;
47413;SDS011;33163;0.000;0.000;2023-06-24T11:17:22;156.93;;;70.22;;
47413;SDS011;33163;0.000;0.000;2023-06-24T11:19:49;163.23;;;72.28;;
47413;SDS011;33163;0.000;0.000;2023-06-24T11:22:15;167.02;;;71.60;;
47413;SDS011;33163;0.000;0.000;2023-06-24T11:24:42;159.65;;;68.88;;
47413;SDS011;33163;0.000;0.000;2023-06-24T11:27:09;162.13;;;70.00;;
47413;SDS011;33163;0.000;0.000;2023-06-24T11:29:36;162.40;;;66.10;;
47413;SDS011;33163;0.000;0.000;2023-06-24T11:32:06;149.30;;;66.05;;
47413;SDS011;33163;0.000;0.000;2023-06-24T11:34:34;147.95;;;62.10;;
47413;SDS011;33163;0.000;0.000;2023-06-24T11:37:08;128.43;;;51.97;;
47413;SDS011;33163;0.000;0.000;2023-06-24T11:42:05;133.85;;;51.83;;
47413;SDS011;33163;0.000;0.000;2023-06-24T11:44:33;114.25;;;50.63;;
47413;SDS011;33163;0.000;0.000;2023-06-24T11:47:05;117.28;;;48.55;;
47413;SDS011;33163;0.000;0.000;2023-06-24T11:49:43;111.32;;;46.10;;
47413;SDS011;33163;0.000;0.000;2023-06-24T11:52:14;104.47;;;45.30;;
47413;SDS011;33163;0.000;0.000;2023-06-24T11:54:41;95.43;;;41.33;;
47413;SDS011;33163;0.000;0.000;2023-06-24T11:57:08;102.00;;;43.33;;
47413;SDS011;33163;0.000;0.000;2023-06-24T11:59:38;86.88;;;38.25;;
47413;SDS011;33163;0.000;0.000;2023-06-24T12:02:06;86.88;;;38.40;;
47413;SDS011;33163;0.000;0.000;2023-06-24T12:04:33;94.68;;;40.67;;
47413;SDS011;33163;0.000;0.000;2023-06-24T12:07:02;81.05;;;35.58;;
47413;SDS011;33163;0.000;0.000;2023-06-24T12:09:29;83.95;;;36.22;;
47413;SDS011;33163;0.000;0.000;2023-06-24T12:11:56;80.28;;;35.72;;
47413;SDS011;33163;0.000;0.000;2023-06-24T12:14:23;75.72;;;34.83;;
47413;SDS011;33163;0.000;0.000;2023-06-24T12:16:49;96.38;;;37.13;;
47413;SDS011;33163;0.000;0.000;2023-06-24T12:19:18;88.57;;;38.10;;
47413;SDS011;33163;0.000;0.000;2023-06-24T12:21:45;79.90;;;36.47;;
47413;SDS011;33163;0.000;0.000;2023-06-24T12:24:12;78.25;;;36.13;;
47413;SDS011;33163;0.000;0.000;2023-06-24T12:26:39;78.90;;;33.85;;
47413;SDS011;33163;0.000;0.000;2023-06-24T12:29:06;86.57;;;33.60;;
47413;SDS011;33163;0.000;0.000;2023-06-24T12:31:32;75.28;;;32.60;;
47413;SDS011;33163;0.000;0.000;2023-06-24T12:33:59;72.18;;;33.22;;
47413;SDS011;33163;0.000;0.000;2023-06-24T12:36:27;75.35;;;32.88;;
47413;SDS011;33163;0.000;0.000;2023-06-24T12:38:54;69.05;;;32.13;;
47413;SDS011;33163;0.000;0.000;2023-06-24T12:41:20;71.10;;;31.63;;
47413;SDS011;33163;0.000;0.000;2023-06-24T12:43:47;68.30;;;31.98;;
47413;SDS011;33163;0.000;0.000;2023-06-24T12:46:14;68.00;;;30.10;;
47413;SDS011;33163;0.000;0.000;2023-06-24T12:48:41;69.28;;;29.33;;
47413;SDS011;33163;0.000;0.000;2023-06-24T12:51:08;64.32;;;29.88;;
47413;SDS011;33163;0.000;0.000;2023-06-24T12:53:37;57.67;;;29.40;;
47413;SDS011;33163;0.000;0.000;2023-06-24T12:56:04;62.05;;;29.92;;
47413;SDS011;33163;0.000;0.000;2023-06-24T12:58:30;60.65;;;28.70;;
47413;SDS011;33163;0.000;0.000;2023-06-24T13:00:57;56.85;;;27.35;;
47413;SDS011;33163;0.000;0.000;2023-06-24T13:03:24;62.28;;;28.27;;
47413;SDS011;33163;0.000;0.000;2023-06-24T13:05:50;62.13;;;26.40;;
47413;SDS011;33163;0.000;0.000;2023-06-24T13:08:18;57.50;;;25.77;;
47413;SDS011;33163;0.000;0.000;2023-06-24T13:10:46;50.85;;;25.40;;
47413;SDS011;33163;0.000;0.000;2023-06-24T13:13:13;55.78;;;24.95;;
47413;SDS011;33163;0.000;0.000;2023-06-24T13:15:40;44.53;;;23.50;;
47413;SDS011;33163;0.000;0.000;2023-06-24T13:18:06;55.33;;;23.05;;
47413;SDS011;33163;0.000;0.000;2023-06-24T13:20:33;57.05;;;22.80;;
47413;SDS011;33163;0.000;0.000;2023-06-24T13:23:00;43.80;;;22.38;;
47413;SDS011;33163;0.000;0.000;2023-06-24T13:25:27;47.72;;;22.23;;
47413;SDS011;33163;0.000;0.000;2023-06-24T13:27:55;41.08;;;19.98;;
47413;SDS011;33163;0.000;0.000;2023-06-24T13:30:22;41.85;;;20.50;;
47413;SDS011;33163;0.000;0.000;2023-06-24T13:32:49;40.33;;;19.85;;
47413;SDS011;33163;0.000;0.000;2023-06-24T13:35:15;43.55;;;18.92;;
47413;SDS011;33163;0.000;0.000;2023-06-24T13:37:42;39.50;;;18.98;;
47413;SDS011;33163;0.000;0.000;2023-06-24T13:40:09;41.70;;;18.40;;
47413;SDS011;33163;0.000;0.000;2023-06-24T13:42:37;45.88;;;18.63;;
47413;SDS011;33163;0.000;0.000;2023-06-24T13:45:06;48.97;;;20.00;;
47413;SDS011;33163;0.000;0.000;2023-06-24T13:47:33;37.25;;;18.02;;
47413;SDS011;33163;0.000;0.000;2023-06-24T13:50:00;35.30;;;18.13;;
47413;SDS011;33163;0.000;0.000;2023-06-24T13:52:28;31.65;;;16.92;;
47413;SDS011;33163;0.000;0.000;2023-06-24T13:54:55;35.60;;;17.40;;
47413;SDS011;33163;0.000;0.000;2023-06-24T13:57:21;36.28;;;17.80;;
47413;SDS011;33163;0.000;0.000;2023-06-24T13:59:48;37.33;;;18.05;;
47413;SDS011;33163;0.000;0.000;2023-06-24T14:02:16;39.78;;;17.10;;
47413;SDS011;33163;0.000;0.000;2023-06-24T14:04:44;32.42;;;17.05;;
47413;SDS011;33163;0.000;0.000;2023-06-24T14:07:10;29.42;;;16.23;;
47413;SDS011;33163;0.000;0.000;2023-06-24T14:09:37;33.60;;;16.40;;
47413;SDS011;33163;0.000;0.000;2023-06-24T14:12:05;34.42;;;17.25;;
47413;SDS011;33163;0.000;0.000;2023-06-24T14:14:34;30.83;;;15.38;;
47413;SDS011;33163;0.000;0.000;2023-06-24T14:17:01;33.20;;;14.93;;
47413;SDS011;33163;0.000;0.000;2023-06-24T14:19:30;33.78;;;15.70;;
47413;SDS011;33163;0.000;0.000;2023-06-24T14:21:57;31.58;;;14.40;;
47413;SDS011;33163;0.000;0.000;2023-06-24T14:24:24;28.75;;;14.40;;
47413;SDS011;33163;0.000;0.000;2023-06-24T14:26:51;26.63;;;14.52;;
47413;SDS011;33163;0.000;0.000;2023-06-24T14:29:17;41.63;;;14.95;;
47413;SDS011;33163;0.000;0.000;2023-06-24T14:31:44;28.38;;;14.00;;
47413;SDS011;33163;0.000;0.000;2023-06-24T14:34:11;31.88;;;15.05;;
47413;SDS011;33163;0.000;0.000;2023-06-24T14:36:39;33.40;;;13.85;;
47413;SDS011;33163;0.000;0.000;2023-06-24T14:39:06;28.65;;;14.60;;
47413;SDS011;33163;0.000;0.000;2023-06-24T14:41:33;24.92;;;13.27;;
47413;SDS011;33163;0.000;0.000;2023-06-24T14:43:59;27.50;;;14.02;;
47413;SDS011;33163;0.000;0.000;2023-06-24T14:46:26;25.45;;;13.27;;
47413;SDS011;33163;0.000;0.000;2023-06-24T14:48:53;32.17;;;14.75;;
47413;SDS011;33163;0.000;0.000;2023-06-24T14:51:20;25.38;;;13.45;;
47413;SDS011;33163;0.000;0.000;2023-06-24T14:53:48;31.52;;;13.82;;
47413;SDS011;33163;0.000;0.000;2023-06-24T14:56:15;24.58;;;13.85;;